Time;durP1;ratioP1;P1;durP2;ratioP2;P2;SDS_P1;SDS_P2;PMS_P1;PMS_P2;Temp;Humidity;BMP_temperature;BMP_pressure;BME280_temperature;BME280_humidity;BME280_pressure;Samples;Min_cycle;Max_cycle;Signal;HPM_P1;HPM_P2
2024/02/12 00:00:19;;;;;;;;;8.00;8.00;;;;;9.17;100.00;97863.47;6275899;20;2752498;-49
2024/02/12 00:02:48;;;;;;;;;12.67;12.67;;;;;9.02;100.00;97860.25;6274072;20;3529726;-49
2024/02/12 00:05:17;;;;;;;;;13.67;13.00;;;;;9.18;100.00;97870.53;6274556;20;3528410;-49
2024/02/12 00:07:45;;;;;;;;;16.00;12.00;;;;;9.04;100.00;97873.53;6308371;20;2802378;-53
2024/02/12 00:10:14;;;;;;;;;14.00;13.00;;;;;8.94;100.00;97878.81;6272080;20;2805496;-47
2024/02/12 00:12:43;;;;;;;;;12.00;12.00;;;;;8.93;100.00;97877.97;6304408;20;2788885;-48
2024/02/12 00:15:11;;;;;;;;;11.50;11.50;;;;;8.93;100.00;97877.97;6301731;20;2794066;-51
2024/02/12 00:17:41;;;;;;;;;14.00;11.00;;;;;8.90;100.00;97874.66;6274737;20;2782613;-50
2024/02/12 00:20:14;;;;;;;;;21.50;16.00;;;;;9.22;100.00;97877.31;6274270;20;2830615;-50
2024/02/12 00:22:43;;;;;;;;;14.00;14.00;;;;;9.05;100.00;97875.22;6270834;20;2797164;-50
2024/02/12 00:25:14;;;;;;;;;11.80;10.60;;;;;8.94;100.00;97876.13;6325857;20;2788821;-48
2024/02/12 00:27:42;;;;;;;;;11.00;11.00;;;;;9.11;100.00;97880.03;6277912;20;2788935;-49
2024/02/12 00:30:12;;;;;;;;;14.00;13.67;;;;;8.99;100.00;97873.91;6272955;20;2794032;-50
2024/02/12 00:32:43;;;;;;;;;11.40;11.40;;;;;8.63;100.00;97872.47;6331161;20;2791987;-47
2024/02/12 00:35:15;;;;;;;;;12.00;12.00;;;;;8.99;100.00;97865.88;6297729;20;2791908;-49
2024/02/12 00:37:43;;;;;;;;;12.50;11.00;;;;;8.93;100.00;97855.72;6280437;20;2788911;-50
2024/02/12 00:40:14;;;;;;;;;14.67;12.00;;;;;9.01;100.00;97859.44;6275720;20;2790971;-49
2024/02/12 00:42:42;;;;;;;;;11.50;10.00;;;;;8.75;100.00;97868.78;6304793;20;2790000;-51
2024/02/12 00:45:11;;;;;;;;;15.00;12.50;;;;;8.84;100.00;97862.66;6279789;20;2790910;-47
2024/02/12 00:47:41;;;;;;;;;11.40;11.40;;;;;9.06;100.00;97872.44;6302461;20;2789996;-51
2024/02/12 00:50:11;;;;;;;;;12.60;10.00;;;;;8.93;100.00;97869.09;6304790;20;2787867;-48
2024/02/12 00:52:39;;;;;;;;;11.50;11.50;;;;;8.81;100.00;97860.25;6278830;20;2785909;-49
2024/02/12 00:55:15;;;;;;;;;9.50;9.50;;;;;8.87;100.00;97861.56;6277324;20;2767050;-48
2024/02/12 00:57:43;;;;;;;;;13.33;11.67;;;;;8.84;100.00;97862.66;6276940;20;2793070;-50
2024/02/12 01:00:14;;;;;;;;;8.00;8.00;;;;;8.78;100.00;97863.19;6310303;20;2748210;-51
2024/02/12 01:02:45;;;;;;;;;11.60;11.60;;;;;8.63;100.00;97864.47;6300660;20;2789870;-51
2024/02/12 01:05:17;;;;;;;;;11.80;11.40;;;;;8.67;100.00;97860.56;6305168;20;2791941;-51
2024/02/12 01:07:46;;;;;;;;;9.00;9.00;;;;;8.76;100.00;97854.44;6281293;20;2762797;-48
2024/02/12 01:10:15;;;;;;;;;9.00;9.00;;;;;8.71;100.00;97859.31;6280995;20;2752361;-52
2024/02/12 01:12:45;;;;;;;;;9.80;9.80;;;;;8.70;100.00;97866.50;6299671;20;2768008;-50
2024/02/12 01:15:13;;;;;;;;;9.00;8.00;;;;;8.78;100.00;97858.69;6276164;20;2740900;-50
2024/02/12 01:17:41;;;;;;;;;9.00;6.00;;;;;8.53;100.00;97859.00;6278167;20;2745116;-46
2024/02/12 01:20:22;;;;;;;;;7.67;7.67;;;;;8.55;100.00;97857.06;6321634;20;1814943;-48
2024/02/12 01:22:50;;;;;;;;;8.00;8.00;;;;;8.61;100.00;97861.06;6281518;20;2728558;-49
2024/02/12 01:25:19;;;;;;;;;9.00;9.00;;;;;8.59;100.00;97860.34;6309486;20;2760907;-47
2024/02/12 01:27:50;;;;;;;;;9.40;8.60;;;;;8.52;100.00;97862.66;6303066;20;2770131;-50
2024/02/12 01:30:18;;;;;;;;;10.00;8.00;;;;;8.49;100.00;97858.41;6280140;20;2748241;-52
2024/02/12 01:32:46;;;;;;;;;7.00;7.00;;;;;8.35;100.00;97856.00;6280132;20;2741913;-52
2024/02/12 01:35:14;;;;;;;;;9.00;7.00;;;;;8.36;100.00;97860.38;6279059;20;2750542;-51
2024/02/12 01:37:42;;;;;;;;;7.00;7.00;;;;;8.51;100.00;97864.50;6276827;20;2742000;-50
2024/02/12 01:40:11;;;;;;;;;4.00;4.00;;;;;8.49;100.00;97862.94;6279138;20;2750342;-51
2024/02/12 01:42:40;;;;;;;;;11.00;11.00;;;;;8.52;100.00;97858.16;6277420;20;2787820;-50
2024/02/12 01:45:17;;;;;;;;;9.00;9.00;;;;;8.49;100.00;97863.78;6277283;20;2728429;-52
2024/02/12 01:47:52;;;;;;;;;10.00;10.00;;;;;8.41;100.00;97855.53;6276865;20;2792001;-49
2024/02/12 01:50:20;;;;;;;;;11.00;11.00;;;;;8.56;100.00;97859.63;6275198;20;2783722;-51
2024/02/12 01:52:52;;;;;;;;;12.71;10.71;;;;;8.16;100.00;97851.28;6319001;20;1814920;-50
2024/02/12 01:55:23;;;;;;;;;11.00;11.00;;;;;8.43;100.00;97853.59;6304025;20;2783702;-51
2024/02/12 01:57:53;;;;;;;;;10.33;10.33;;;;;8.35;100.00;97848.00;6277914;20;2792046;-52
2024/02/12 02:00:26;;;;;;;;;11.00;7.50;;;;;8.35;100.00;97862.22;6308040;20;2750325;-52
2024/02/12 02:02:57;;;;;;;;;11.50;10.00;;;;;8.44;100.00;97859.78;6307062;20;2791998;-54
2024/02/12 02:05:27;;;;;;;;;10.20;10.20;;;;;8.39;100.00;97862.81;6304474;20;2788834;-51
2024/02/12 02:08:00;;;;;;;;;13.50;11.00;;;;;8.34;100.00;97856.97;6276470;20;2789868;-50
2024/02/12 02:10:29;;;;;;;;;13.50;12.50;;;;;8.44;100.00;97865.97;6275666;20;2788884;-54
2024/02/12 02:12:59;;;;;;;;;20.00;16.67;;;;;8.52;100.00;97868.03;6276695;20;3565878;-49
2024/02/12 02:15:28;;;;;;;;;17.00;14.33;;;;;8.41;100.00;97876.94;6304176;20;3552399;-52
2024/02/12 02:17:56;;;;;;;;;13.00;11.50;;;;;8.33;100.00;97871.31;6306961;20;2794106;-51
2024/02/12 02:20:26;;;;;;;;;18.00;15.00;;;;;8.42;100.00;97873.25;6275952;20;2815253;-52
2024/02/12 02:22:56;;;;;;;;;18.67;18.67;;;;;8.32;100.00;97877.63;6277029;20;3555486;-51
2024/02/12 02:25:24;;;;;;;;;15.50;13.00;;;;;8.56;100.00;97872.16;6310932;20;2788859;-51
2024/02/12 02:27:52;;;;;;;;;14.00;14.00;;;;;8.42;100.00;97878.63;6280696;20;2801448;-50
2024/02/12 02:30:21;;;;;;;;;17.67;15.33;;;;;8.28;100.00;97868.19;6274717;20;3551438;-51
2024/02/12 02:32:50;;;;;;;;;20.00;14.00;;;;;8.26;100.00;97867.44;6306271;20;2816061;-49
2024/02/12 02:35:19;;;;;;;;;14.33;13.67;;;;;8.29;100.00;97861.84;6276372;20;3543125;-49
2024/02/12 02:37:47;;;;;;;;;11.00;11.00;;;;;8.31;100.00;97862.56;6275353;20;2789860;-48
2024/02/12 02:40:15;;;;;;;;;17.50;17.50;;;;;8.27;100.00;97853.97;6276308;20;2828526;-50
2024/02/12 02:42:46;;;;;;;;;15.00;15.00;;;;;8.43;100.00;97858.94;6278976;20;2808642;-48
2024/02/12 02:45:15;;;;;;;;;18.67;17.00;;;;;8.25;100.00;97855.91;6276711;20;3556548;-49
2024/02/12 02:47:44;;;;;;;;;19.33;16.67;;;;;8.39;100.00;97860.16;6307111;20;3560874;-50
2024/02/12 02:50:13;;;;;;;;;19.67;18.67;;;;;8.28;100.00;97865.50;6272066;20;3553388;-52
2024/02/12 02:52:42;;;;;;;;;17.00;17.00;;;;;8.43;100.00;97863.44;6301917;20;2492066;-51
2024/02/12 02:55:11;;;;;;;;;16.00;15.00;;;;;8.56;100.00;97874.81;6273018;20;2806569;-51
2024/02/12 02:57:40;;;;;;;;;18.67;17.00;;;;;8.33;100.00;97865.97;6272450;20;3552370;-51
2024/02/12 03:00:10;;;;;;;;;19.50;18.50;;;;;8.10;100.00;97876.69;6304358;20;2830581;-51
2024/02/12 03:02:38;;;;;;;;;19.00;16.00;;;;;8.28;100.00;97881.53;6276967;20;2824225;-50
2024/02/12 03:05:08;;;;;;;;;14.67;14.00;;;;;8.43;100.00;97879.50;6270946;20;3540998;-51
2024/02/12 03:07:38;;;;;;;;;15.50;15.50;;;;;8.57;100.00;97877.34;6310402;20;2812753;-48
2024/02/12 03:10:07;;;;;;;;;17.00;17.00;;;;;8.31;100.00;97881.28;6276531;20;2823187;-51
2024/02/12 03:12:36;;;;;;;;;15.67;15.00;;;;;8.56;100.00;97875.66;6275579;20;3534696;-49
2024/02/12 03:15:11;;;;;;;;;17.00;16.00;;;;;8.55;100.00;97878.47;6303659;20;3554503;-50
2024/02/12 03:17:44;;;;;;;;;24.00;15.50;;;;;8.61;100.00;97871.75;6275869;20;2847153;-51
2024/02/12 03:20:13;;;;;;;;;14.00;12.00;;;;;8.33;100.00;97874.00;6274281;20;2807642;-46
2024/02/12 03:22:42;;;;;;;;;14.00;13.00;;;;;8.48;100.00;97874.63;6274772;20;2811895;-47
2024/02/12 03:25:11;;;;;;;;;13.00;13.00;;;;;8.38;100.00;97874.47;6274465;20;2814921;-48
2024/02/12 03:27:43;;;;;;;;;11.00;11.00;;;;;8.31;100.00;97881.28;6274255;20;2781793;-49
2024/02/12 03:30:12;;;;;;;;;11.50;10.00;;;;;8.43;100.00;97883.00;6273104;20;2794074;-45
2024/02/12 03:32:40;;;;;;;;;13.33;9.67;;;;;8.34;100.00;97886.38;6273739;20;2774285;-46
2024/02/12 03:35:09;;;;;;;;;12.00;10.67;;;;;8.31;100.00;97882.13;6299553;20;2796196;-46
2024/02/12 03:37:38;;;;;;;;;19.00;17.50;;;;;8.49;100.00;97885.16;6305895;20;2827410;-46
2024/02/12 03:40:12;;;;;;;;;33.00;25.00;;;;;8.24;100.00;97880.06;6274623;20;3598133;-52
2024/02/12 03:42:40;;;;;;;;;9.50;8.50;;;;;8.40;100.00;97882.38;6303826;20;2756568;-51
2024/02/12 03:45:11;;;;;;;;;11.00;9.00;;;;;8.26;100.00;97884.31;6275821;20;2761724;-50
2024/02/12 03:47:40;;;;;;;;;5.00;5.00;;;;;8.36;100.00;97876.41;6298012;20;1812898;-46
2024/02/12 04:01:27;;;;;;;;;7.00;6.00;;;;;8.19;100.00;97872.47;6275635;20;2739870;-48
2024/02/12 04:03:55;;;;;;;;;9.00;8.00;;;;;8.44;100.00;97871.31;6305046;20;2727474;-47
2024/02/12 04:06:24;;;;;;;;;9.00;6.50;;;;;8.25;100.00;97865.75;6305541;20;2732643;-47
2024/02/12 04:08:54;;;;;;;;;7.00;7.00;;;;;8.19;100.00;97877.81;6331133;20;2748366;-48
2024/02/12 04:11:23;;;;;;;;;8.50;6.00;;;;;8.16;100.00;97877.19;6324518;20;1808588;-49
2024/02/12 04:13:56;;;;;;;;;9.50;7.75;;;;;8.12;100.00;97877.44;6320241;20;1815074;-48
2024/02/12 04:16:24;;;;;;;;;10.00;6.00;;;;;8.27;100.00;97875.34;6306748;20;2760831;-49
2024/02/12 04:18:53;;;;;;;;;7.00;7.00;;;;;8.24;100.00;97880.06;6278399;20;2731263;-52
2024/02/12 04:21:22;;;;;;;;;4.00;4.00;;;;;8.24;100.00;97880.97;6314279;20;2748237;-52
2024/02/12 04:23:52;;;;;;;;;6.00;6.00;;;;;8.25;100.00;97876.44;6280237;20;2738825;-49
2024/02/12 04:26:21;;;;;;;;;12.00;10.50;;;;;8.39;100.00;97884.22;6278842;20;2785827;-48
2024/02/12 04:28:49;;;;;;;;;10.00;10.00;;;;;8.18;100.00;97877.91;6282950;20;2768138;-47
2024/02/12 04:31:17;;;;;;;;;9.50;9.50;;;;;8.25;100.00;97884.47;6281023;20;2752357;-48
2024/02/12 04:33:46;;;;;;;;;11.50;9.50;;;;;8.39;100.00;97884.22;6279667;20;2763877;-52
2024/02/12 04:36:15;;;;;;;;;12.50;12.50;;;;;8.32;100.00;97882.97;6282691;20;2796102;-51
2024/02/12 04:38:44;;;;;;;;;14.00;11.50;;;;;8.35;100.00;97882.75;6281264;20;2789954;-50
2024/02/12 04:41:13;;;;;;;;;13.00;12.00;;;;;8.34;100.00;97889.06;6279583;20;2792012;-52
2024/02/12 04:43:42;;;;;;;;;11.00;7.50;;;;;8.26;100.00;97886.16;6282832;20;2769099;-49
2024/02/12 04:46:10;;;;;;;;;10.00;7.00;;;;;8.29;100.00;97892.13;6277579;20;2764899;-51
2024/02/12 04:48:39;;;;;;;;;6.00;6.00;;;;;8.27;100.00;97895.91;6283658;20;2730557;-48
2024/02/12 04:51:08;;;;;;;;;8.00;6.00;;;;;8.30;100.00;97901.00;6317017;20;2626835;-52
2024/02/12 04:53:38;;;;;;;;;7.00;5.50;;;;;8.44;100.00;97908.75;6311838;20;2739872;-49
2024/02/12 04:56:07;;;;;;;;;7.00;7.00;;;;;8.50;100.00;97910.09;6310073;20;2744176;-48
2024/02/12 04:58:37;;;;;;;;;6.00;6.00;;;;;8.48;100.00;97909.38;6282899;20;2747147;-48
2024/02/12 05:01:07;;;;;;;;;9.00;9.00;;;;;8.13;100.00;97913.88;6312207;20;2748318;-47
2024/02/12 05:03:38;;;;;;;;;13.60;13.00;;;;;8.30;100.00;97907.19;6300056;20;2794045;-48
2024/02/12 05:06:06;;;;;;;;;16.00;14.00;;;;;8.22;100.00;97917.66;6281805;20;2818998;-47
2024/02/12 05:08:34;;;;;;;;;10.00;8.50;;;;;8.45;100.00;97918.50;6278402;20;2751321;-49
2024/02/12 05:11:03;;;;;;;;;11.67;11.00;;;;;8.33;100.00;97922.13;6274592;20;2787904;-46
2024/02/12 05:13:34;;;;;;;;;18.50;14.00;;;;;7.84;100.00;97928.69;6306035;20;2808680;-49
2024/02/12 05:16:07;;;;;;;;;23.00;19.50;;;;;8.03;100.00;97928.97;6273292;20;2500422;-47
2024/02/12 05:24:09;;;;;;;;;19.00;18.00;;;;;8.31;100.00;97940.13;6278904;20;2828518;-47
2024/02/12 05:26:40;;;;;;;;;21.50;19.00;;;;;8.46;100.00;97948.78;6275176;20;2500281;-50
2024/02/12 05:29:09;;;;;;;;;23.50;22.00;;;;;8.54;100.00;97952.50;6276206;20;2841969;-46
2024/02/12 05:31:39;;;;;;;;;24.50;23.00;;;;;8.35;100.00;97952.28;6274019;20;2841978;-45
2024/02/12 05:34:07;;;;;;;;;17.67;17.67;;;;;8.25;100.00;97948.63;6275727;20;3559651;-48
2024/02/12 05:36:36;;;;;;;;;12.00;12.00;;;;;8.55;100.00;97940.81;6309244;20;2788821;-53
2024/02/12 05:39:04;;;;;;;;;12.33;12.00;;;;;8.51;100.00;97947.41;6276853;20;2789922;-49
2024/02/12 05:41:32;;;;;;;;;13.50;12.50;;;;;8.56;100.00;97947.06;6306432;20;2802451;-50
2024/02/12 05:44:01;;;;;;;;;21.00;21.00;;;;;8.35;100.00;97941.59;6275292;20;2844263;-46
2024/02/12 05:46:30;;;;;;;;;23.00;23.00;;;;;8.40;100.00;97949.25;6276681;20;2839878;-50
2024/02/12 05:49:00;;;;;;;;;30.67;28.33;;;;;8.40;100.00;97946.56;6277371;20;2866982;-48
2024/02/12 05:51:29;;;;;;;;;26.50;26.00;;;;;8.38;100.00;97949.34;6306404;20;2847252;-47
2024/02/12 05:53:58;;;;;;;;;25.00;23.00;;;;;8.20;100.00;97950.81;6273928;20;2853409;-49
2024/02/12 05:56:26;;;;;;;;;23.00;19.00;;;;;8.38;100.00;97944.00;6276636;20;2500253;-46
2024/02/12 05:58:54;;;;;;;;;25.00;20.00;;;;;8.43;100.00;97955.22;6279551;20;2842027;-48
2024/02/12 06:01:23;;;;;;;;;14.00;13.00;;;;;8.27;100.00;97949.38;6274784;20;2807626;-46
2024/02/12 06:03:54;;;;;;;;;14.60;14.60;;;;;8.12;100.00;97952.28;6322048;20;1958672;-48
2024/02/12 06:06:22;;;;;;;;;14.00;12.00;;;;;8.30;100.00;97952.63;6308458;20;2799415;-47
2024/02/12 06:08:51;;;;;;;;;14.67;13.33;;;;;8.28;100.00;97957.25;6277712;20;3535673;-52
2024/02/12 06:11:21;;;;;;;;;12.40;12.40;;;;;8.43;100.00;97960.56;6330917;20;2801322;-49
2024/02/12 06:13:49;;;;;;;;;11.33;11.33;;;;;8.37;100.00;97961.00;6276579;20;2789922;-47
2024/02/12 06:16:17;;;;;;;;;11.00;11.00;;;;;8.44;100.00;97958.72;6311653;20;2786823;-50
2024/02/12 06:18:46;;;;;;;;;10.00;10.00;;;;;8.41;100.00;97967.84;6278307;20;2777377;-39
2024/02/12 06:21:14;;;;;;;;;10.00;10.00;;;;;8.44;100.00;97967.59;6279254;20;2785742;-39
2024/02/12 06:23:42;;;;;;;;;14.00;12.50;;;;;8.65;100.00;97965.00;6277301;20;2789035;-39
2024/02/12 06:26:19;;;;;;;;;12.33;12.33;;;;;8.56;100.00;97977.31;6277094;20;3534670;-40
2024/02/12 06:28:50;;;;;;;;;11.33;11.33;;;;;8.84;100.00;97977.72;6305547;20;2796154;-40
2024/02/12 06:31:18;;;;;;;;;21.00;16.00;;;;;8.84;100.00;97980.41;6306650;20;2487812;-40
2024/02/12 06:33:47;;;;;;;;;17.00;14.00;;;;;9.10;100.00;97982.78;6274952;20;3551391;-40
2024/02/12 06:36:16;;;;;;;;;16.67;16.67;;;;;8.95;100.00;97977.72;6308226;20;3540885;-39
2024/02/12 06:38:45;;;;;;;;;17.67;17.00;;;;;8.85;100.00;97976.78;6309393;20;3561746;-40
2024/02/12 06:41:13;;;;;;;;;16.00;13.00;;;;;8.74;100.00;97974.09;6280106;20;2806686;-40
2024/02/12 06:43:42;;;;;;;;;19.00;16.67;;;;;8.86;100.00;97978.47;6274308;20;3554433;-41
2024/02/12 06:46:10;;;;;;;;;23.00;14.00;;;;;9.04;100.00;97986.81;6308188;20;3545093;-40
2024/02/12 06:48:41;;;;;;;;;17.00;12.00;;;;;9.23;100.00;97986.13;6307513;20;3519086;-39
2024/02/12 06:51:10;;;;;;;;;17.33;17.00;;;;;9.35;100.00;97992.31;6308499;20;3560710;-42
2024/02/12 06:53:37;;;;;;;;;17.00;17.00;;;;;9.38;100.00;97998.25;6273555;20;2500367;-41
2024/02/12 06:56:07;;;;;;;;;20.50;18.00;;;;;9.57;100.00;97991.34;6275802;20;2500367;-40
2024/02/12 06:58:37;;;;;;;;;27.67;25.67;;;;;9.43;100.00;97998.69;6276459;20;2858616;-41
2024/02/12 07:01:06;;;;;;;;;37.00;31.00;;;;;9.66;100.00;97999.44;6308028;20;2857715;-41
2024/02/12 07:03:36;;;;;;;;;30.50;24.50;;;;;10.27;100.00;98003.19;6275337;20;3478403;-40
2024/02/12 07:06:05;;;;;;;;;25.50;23.50;;;;;12.55;96.66;98010.09;6306323;20;2831566;-40
2024/02/12 07:08:34;;;;;;;;;23.00;20.50;;;;;13.80;87.66;98013.81;6278084;20;2832604;-41
2024/02/12 07:11:02;;;;;;;;;16.00;15.50;;;;;11.41;94.82;98008.16;6278037;20;2816975;-40
2024/02/12 07:13:29;;;;;;;;;12.00;12.00;;;;;10.75;100.00;98011.44;6274533;20;2797144;-40
2024/02/12 07:15:57;;;;;;;;;13.00;12.50;;;;;10.41;100.00;98010.06;6279885;20;2801420;-41
2024/02/12 07:18:25;;;;;;;;;10.00;10.00;;;;;10.37;100.00;98005.94;6276858;20;2786864;-40
2024/02/12 07:20:53;;;;;;;;;11.00;9.00;;;;;13.41;89.40;98023.25;6275641;20;2766046;-40
2024/02/12 07:23:21;;;;;;;;;10.50;10.00;;;;;12.16;91.01;98024.50;6274977;20;2780526;-40
2024/02/12 07:25:49;;;;;;;;;11.00;8.00;;;;;12.21;90.42;98030.28;6276471;20;2775388;-40
2024/02/12 07:28:18;;;;;;;;;15.00;9.00;;;;;11.89;93.13;98030.66;6272268;20;2763805;-40
2024/02/12 07:30:46;;;;;;;;;11.67;11.67;;;;;11.56;97.05;98027.41;6275264;20;3516964;-40
2024/02/12 07:33:14;;;;;;;;;10.00;10.00;;;;;11.36;97.87;98033.75;6304750;20;2770121;-40
2024/02/12 07:35:43;;;;;;;;;10.00;10.00;;;;;10.94;99.22;98036.66;6276250;20;2792063;-40
2024/02/12 07:38:11;;;;;;;;;9.00;9.00;;;;;10.86;99.64;98039.16;6276269;20;2752442;-40
2024/02/12 07:40:41;;;;;;;;;14.00;11.80;;;;;10.16;100.00;98030.91;6298388;20;2802377;-40
2024/02/12 07:43:09;;;;;;;;;13.00;13.00;;;;;10.19;100.00;98036.03;6274105;20;2786733;-40
2024/02/12 07:45:38;;;;;;;;;10.00;10.00;;;;;9.98;100.00;98035.19;6305591;20;2792001;-40
2024/02/12 07:48:06;;;;;;;;;9.00;8.00;;;;;9.59;100.00;98030.41;6307425;20;2757670;-40
2024/02/12 07:50:37;;;;;;;;;10.20;9.00;;;;;9.64;100.00;98033.56;6300589;20;2771131;-40
2024/02/12 07:53:05;;;;;;;;;12.00;11.00;;;;;9.74;100.00;98040.81;6272885;20;2790966;-40
2024/02/12 07:55:35;;;;;;;;;12.60;12.60;;;;;9.59;100.00;98034.94;6301436;20;2794115;-39
2024/02/12 07:58:03;;;;;;;;;10.00;10.00;;;;;9.58;100.00;98033.22;6282063;20;2789903;-41
2024/02/12 08:00:31;;;;;;;;;10.67;10.67;;;;;9.39;100.00;98034.75;6279218;20;2791971;-39
2024/02/12 08:02:59;;;;;;;;;11.50;11.50;;;;;9.77;100.00;98038.72;6311057;20;2792005;-41
2024/02/12 08:05:28;;;;;;;;;14.67;14.67;;;;;9.50;100.00;98038.38;6277715;20;3531590;-40
2024/02/12 08:07:56;;;;;;;;;18.00;17.00;;;;;9.23;100.00;98039.69;6282768;20;2715894;-40
2024/02/12 08:10:30;;;;;;;;;19.50;14.50;;;;;9.42;100.00;98039.84;6277462;20;2814947;-40
2024/02/12 08:12:58;;;;;;;;;16.50;14.50;;;;;9.45;100.00;98038.75;6278568;20;2817368;-39
2024/02/12 08:15:28;;;;;;;;;12.00;11.00;;;;;9.32;100.00;98038.94;6278089;20;2796363;-40
2024/02/12 08:17:57;;;;;;;;;14.50;12.00;;;;;9.26;100.00;98034.06;6311021;20;2796173;-40
2024/02/12 08:20:26;;;;;;;;;14.00;12.00;;;;;9.36;100.00;98045.72;6282276;20;2791014;-39
2024/02/12 08:22:55;;;;;;;;;15.67;14.00;;;;;9.64;100.00;98055.00;6278730;20;2794066;-40
2024/02/12 08:25:25;;;;;;;;;12.50;12.50;;;;;9.24;100.00;98041.38;6312076;20;2787782;-40
2024/02/12 08:27:54;;;;;;;;;16.00;14.00;;;;;9.39;100.00;98045.47;6282296;20;3523186;-40
2024/02/12 08:30:23;;;;;;;;;13.67;12.33;;;;;9.35;100.00;98052.06;6311813;20;3513813;-39
2024/02/12 08:32:51;;;;;;;;;10.50;9.50;;;;;9.39;100.00;98060.69;6319175;20;2774422;-39
2024/02/12 08:35:20;;;;;;;;;15.00;15.00;;;;;9.37;100.00;98055.47;6281048;20;3543021;-39
2024/02/12 08:37:50;;;;;;;;;13.67;13.67;;;;;9.60;100.00;98063.41;6310962;20;2790939;-40
2024/02/12 08:40:19;;;;;;;;;15.00;15.00;;;;;9.58;100.00;98066.22;6311233;20;3537852;-40
2024/02/12 08:42:50;;;;;;;;;16.33;15.67;;;;;9.52;100.00;98073.91;6311237;20;3550271;-39
2024/02/12 08:45:18;;;;;;;;;23.00;23.00;;;;;9.84;100.00;98081.94;6313017;20;2846111;-39
2024/02/12 08:47:47;;;;;;;;;30.00;27.00;;;;;9.81;100.00;98077.69;6282621;20;3612819;-39
2024/02/12 08:50:16;;;;;;;;;27.33;24.00;;;;;9.65;100.00;98078.13;6281927;20;3584709;-39
2024/02/12 08:52:44;;;;;;;;;24.00;21.00;;;;;9.66;100.00;98084.31;6281909;20;2500422;-39
2024/02/12 08:55:13;;;;;;;;;25.50;24.50;;;;;9.74;100.00;98092.59;6279021;20;2829435;-39
2024/02/12 08:57:43;;;;;;;;;26.00;26.00;;;;;9.56;100.00;98091.47;6280914;20;2856529;-40
2024/02/12 09:00:21;;;;;;;;;31.33;28.67;;;;;9.84;100.00;98096.19;6314968;20;3612807;-40
2024/02/12 09:02:50;;;;;;;;;28.00;25.00;;;;;9.73;100.00;98106.13;6280372;20;2850443;-39
2024/02/12 09:05:19;;;;;;;;;28.00;24.50;;;;;9.96;100.00;98107.72;6277169;20;2837837;-40
2024/02/12 09:07:49;;;;;;;;;29.00;29.00;;;;;9.96;100.00;98114.91;6279524;20;2860816;-39
2024/02/12 09:10:18;;;;;;;;;28.67;27.00;;;;;9.67;100.00;98119.03;6315004;20;3581583;-40
2024/02/12 09:12:51;;;;;;;;;28.00;27.00;;;;;9.86;100.00;98115.69;6310992;20;2854807;-39
2024/02/12 09:15:22;;;;;;;;;28.67;27.33;;;;;9.93;100.00;98117.88;6311029;20;2850306;-39
2024/02/12 09:17:52;;;;;;;;;26.33;23.00;;;;;9.91;100.00;98109.94;6311461;20;2867060;-40
2024/02/12 09:20:21;;;;;;;;;28.67;27.00;;;;;9.87;100.00;98113.84;6310708;20;3605507;-40
2024/02/12 09:22:53;;;;;;;;;30.00;29.00;;;;;9.89;100.00;98115.41;6278634;20;3604740;-39
2024/02/12 09:25:22;;;;;;;;;35.00;31.00;;;;;9.89;100.00;98112.72;6312391;20;3577504;-41
2024/02/12 09:27:53;;;;;;;;;27.67;27.67;;;;;10.00;100.00;98116.34;6313908;20;3596202;-39
2024/02/12 09:30:22;;;;;;;;;33.00;30.33;;;;;10.10;100.00;98122.63;6277884;20;2841969;-38
2024/02/12 09:32:51;;;;;;;;;28.67;22.33;;;;;9.97;100.00;98122.81;6309995;20;3589975;-39
2024/02/12 09:35:20;;;;;;;;;26.00;22.50;;;;;9.96;100.00;98123.81;6276899;20;2843038;-39
2024/02/12 09:37:49;;;;;;;;;21.00;21.00;;;;;10.10;100.00;98136.03;6279034;20;2500353;-40
2024/02/12 09:40:21;;;;;;;;;20.50;20.50;;;;;9.98;100.00;98139.75;6276004;20;2500302;-40
2024/02/12 09:42:54;;;;;;;;;26.00;21.00;;;;;10.11;100.00;98138.59;6281705;20;2849384;-39
2024/02/12 09:45:25;;;;;;;;;20.50;20.50;;;;;10.41;100.00;98136.16;6279037;20;2827508;-39
2024/02/12 09:47:55;;;;;;;;;25.00;24.00;;;;;10.25;100.00;98134.75;6276070;20;2845193;-39
2024/02/12 09:50:29;;;;;;;;;29.50;26.00;;;;;10.30;100.00;98135.22;6276949;20;2855545;-39
2024/02/12 09:52:59;;;;;;;;;33.00;25.00;;;;;10.29;100.00;98125.50;6277992;20;2865920;-39
2024/02/12 09:55:29;;;;;;;;;28.33;23.33;;;;;10.24;100.00;98130.38;6310039;20;3577375;-39
2024/02/12 09:58:00;;;;;;;;;50.00;43.00;;;;;10.12;100.00;98134.09;6275152;20;2848358;-39
2024/02/12 10:00:30;;;;;;;;;44.67;36.33;;;;;10.32;100.00;98129.72;6277628;20;3622323;-39
2024/02/12 10:03:00;;;;;;;;;38.00;33.00;;;;;10.35;100.00;98133.97;6310769;20;2864912;-39
2024/02/12 10:05:30;;;;;;;;;28.33;27.00;;;;;10.36;100.00;98136.53;6313668;20;3603404;-40
2024/02/12 10:08:01;;;;;;;;;27.67;27.67;;;;;10.41;100.00;98130.78;6275031;20;2859775;-50
2024/02/12 10:10:31;;;;;;;;;23.00;21.50;;;;;10.48;100.00;98135.50;6306950;20;2843787;-48
2024/02/12 10:13:00;;;;;;;;;22.00;21.00;;;;;10.75;100.00;98128.72;6278625;20;2830641;-48
2024/02/12 10:15:30;;;;;;;;;24.00;21.00;;;;;10.76;100.00;98123.19;6276695;20;2841997;-47
2024/02/12 10:17:59;;;;;;;;;24.00;22.00;;;;;10.59;100.00;98118.47;6274313;20;2841939;-48
2024/02/12 10:20:28;;;;;;;;;23.50;19.00;;;;;10.32;100.00;98119.00;6279557;20;2844174;-49
2024/02/12 10:22:57;;;;;;;;;23.50;21.00;;;;;10.54;100.00;98118.84;6278815;20;2839869;-49
2024/02/12 10:25:26;;;;;;;;;22.50;21.50;;;;;10.57;100.00;98122.25;6276788;20;2827515;-48
2024/02/12 10:27:55;;;;;;;;;25.00;24.50;;;;;10.69;100.00;98119.38;6276649;20;2844054;-48
2024/02/12 10:30:24;;;;;;;;;24.50;21.50;;;;;10.71;100.00;98119.22;6260114;20;2836905;-49
2024/02/12 10:32:55;;;;;;;;;26.50;23.00;;;;;10.71;100.00;98117.38;6276255;20;2836745;-48
2024/02/12 10:35:24;;;;;;;;;26.00;24.50;;;;;11.00;100.00;98119.34;6274599;20;2846106;-47
2024/02/12 10:37:54;;;;;;;;;27.33;25.00;;;;;10.90;100.00;98118.44;6277226;20;3578543;-47
2024/02/12 10:40:30;;;;;;;;;28.00;25.33;;;;;10.77;100.00;98111.50;6307285;20;3607626;-48
2024/02/12 10:43:05;;;;;;;;;29.67;26.33;;;;;10.67;100.00;98107.91;6274909;20;2850313;-47
2024/02/12 10:45:34;;;;;;;;;32.00;28.00;;;;;11.02;100.00;98112.00;6307307;20;3592004;-49
2024/02/12 10:48:04;;;;;;;;;24.00;24.00;;;;;10.81;100.00;98105.84;6273397;20;2846176;-50
2024/02/12 10:50:36;;;;;;;;;20.00;19.50;;;;;11.11;100.00;98111.19;6277295;20;2844175;-48
2024/02/12 10:53:05;;;;;;;;;23.00;21.50;;;;;11.33;100.00;98109.28;6274823;20;2500314;-49
2024/02/12 10:55:36;;;;;;;;;19.50;16.50;;;;;11.11;100.00;98095.09;6271968;20;2833650;-48
2024/02/12 10:58:07;;;;;;;;;18.00;16.00;;;;;11.27;100.00;98094.56;6275531;20;3557761;-48
2024/02/12 11:00:40;;;;;;;;;18.50;17.50;;;;;11.41;100.00;98096.00;6305488;20;2834782;-49
2024/02/12 11:03:53;;;;;;;;;20.00;19.00;;;;;11.17;100.00;98102.56;6277300;20;2841937;-48
2024/02/12 11:06:21;;;;;;;;;17.00;15.50;;;;;11.28;100.00;98101.63;6277396;20;2824247;-53
2024/02/12 11:08:50;;;;;;;;;15.00;12.00;;;;;11.24;100.00;98110.06;6280155;20;2783615;-52
2024/02/12 11:11:22;;;;;;;;;14.00;13.00;;;;;11.13;100.00;98109.19;6282821;20;2792048;-53
2024/02/12 11:14:02;;;;;;;;;13.33;12.67;;;;;11.47;100.00;98106.16;6276553;20;3541921;-48
2024/02/12 11:16:34;;;;;;;;;14.67;13.00;;;;;11.13;99.67;98097.63;6303136;20;3545079;-49
2024/02/12 11:19:02;;;;;;;;;15.00;15.00;;;;;11.30;98.45;98106.88;6311014;20;2814891;-46
2024/02/12 11:21:38;;;;;;;;;20.00;15.00;;;;;11.25;96.28;98095.69;6277978;20;3553398;-50
2024/02/12 11:24:07;;;;;;;;;11.00;11.00;;;;;11.06;96.61;98097.31;6279376;20;2794593;-52
2024/02/12 11:26:43;;;;;;;;;18.50;16.00;;;;;11.29;96.06;98092.56;6271110;20;2492109;-48
2024/02/12 11:29:17;;;;;;;;;14.00;11.50;;;;;11.38;92.30;98086.38;6274865;20;2786887;-46